Time;durP1;ratioP1;P1;durP2;ratioP2;P2;SDS_P1;SDS_P2;PMS_P1;PMS_P2;Temp;Humidity;BMP_temperature;BMP_pressure;BME280_temperature;BME280_humidity;BME280_pressure;Samples;Min_cycle;Max_cycle;Signal;HPM_P1;HPM_P2
2023/06/29 00:00:11;;;;;;;66.35;43.95;;;23.10;91.70;;;;;;4115715;28;20046;-56
2023/06/29 00:02:13;;;;;;;62.83;44.25;;;23.10;91.60;;;;;;4114505;28;20101;-53
2023/06/29 00:04:20;;;;;;;65.47;42.40;;;23.10;91.60;;;;;;4115629;28;20046;-55
2023/06/29 00:06:24;;;;;;;54.10;37.25;;;23.10;91.70;;;;;;4115739;28;20067;-59
2023/06/29 00:08:28;;;;;;;59.05;41.92;;;23.00;91.70;;;;;;4115568;28;20046;-55
2023/06/29 00:10:30;;;;;;;53.00;35.90;;;23.00;91.70;;;;;;4114548;28;20058;-55
2023/06/29 00:12:32;;;;;;;57.30;38.97;;;23.00;91.80;;;;;;4114676;28;20129;-55
2023/06/29 00:14:35;;;;;;;51.65;34.55;;;23.00;91.90;;;;;;4115447;28;20057;-54
2023/06/29 00:16:37;;;;;;;48.67;32.85;;;23.00;91.90;;;;;;4115367;28;20493;-60
2023/06/29 00:18:39;;;;;;;47.38;32.47;;;22.90;91.90;;;;;;4115704;28;20055;-52
2023/06/29 00:20:42;;;;;;;44.65;30.95;;;22.90;92.00;;;;;;4115362;28;20130;-52
2023/06/29 00:22:47;;;;;;;42.92;31.52;;;22.90;92.10;;;;;;4114688;28;20062;-52
2023/06/29 00:24:56;;;;;;;46.55;31.35;;;22.90;92.10;;;;;;4115550;28;20054;-53
2023/06/29 00:26:58;;;;;;;46.55;33.10;;;22.80;92.30;;;;;;4115629;28;20066;-53
2023/06/29 00:29:01;;;;;;;44.63;31.27;;;22.80;92.20;;;;;;4114605;28;20058;-52
2023/06/29 00:31:03;;;;;;;51.25;33.78;;;22.80;92.30;;;;;;4114680;28;20043;-53
2023/06/29 00:33:05;;;;;;;45.85;31.25;;;22.90;92.20;;;;;;4114330;28;20125;-55
2023/06/29 00:35:08;;;;;;;43.40;31.33;;;22.90;92.30;;;;;;4114204;28;20074;-54
2023/06/29 00:37:10;;;;;;;39.22;30.08;;;22.80;92.30;;;;;;4103574;28;20054;-55
2023/06/29 00:39:13;;;;;;;40.85;28.67;;;22.80;92.40;;;;;;4131404;28;20046;-55
2023/06/29 00:41:15;;;;;;;44.83;32.38;;;22.80;92.40;;;;;;4130550;28;20125;-56
2023/06/29 00:43:18;;;;;;;45.38;32.40;;;22.80;92.40;;;;;;4131005;28;20393;-55
2023/06/29 00:45:20;;;;;;;57.97;38.50;;;22.80;92.40;;;;;;4130870;28;20120;-55
2023/06/29 00:47:22;;;;;;;63.58;41.20;;;22.80;92.50;;;;;;4131077;28;20125;-55
2023/06/29 00:49:24;;;;;;;80.00;52.08;;;22.80;92.40;;;;;;4121116;28;20042;-55
2023/06/29 00:51:27;;;;;;;91.28;61.42;;;22.80;92.40;;;;;;4114305;28;20133;-56
2023/06/29 00:53:29;;;;;;;95.43;65.20;;;22.80;92.30;;;;;;4114930;28;20441;-55
2023/06/29 00:55:33;;;;;;;89.00;59.63;;;22.70;92.40;;;;;;4115046;28;20146;-55
2023/06/29 00:57:35;;;;;;;88.03;58.27;;;22.80;92.30;;;;;;4115362;28;20062;-55
2023/06/29 00:59:37;;;;;;;82.13;58.25;;;22.80;92.40;;;;;;4114767;28;20436;-56
2023/06/29 01:01:40;;;;;;;94.13;59.45;;;22.80;92.60;;;;;;4114278;28;20162;-52
2023/06/29 01:03:42;;;;;;;84.78;58.80;;;22.70;92.40;;;;;;4114975;28;20047;-53
2023/06/29 01:05:46;;;;;;;78.20;54.60;;;22.70;92.30;;;;;;4115017;28;20047;-52
2023/06/29 01:07:56;;;;;;;83.45;53.63;;;22.80;92.50;;;;;;4115283;28;20051;-53
2023/06/29 01:09:59;;;;;;;69.53;47.72;;;22.70;92.40;;;;;;4114917;28;20141;-53
2023/06/29 01:12:04;;;;;;;63.35;44.95;;;22.70;92.60;;;;;;4114030;28;20059;-53
2023/06/29 01:14:08;;;;;;;;;;;22.70;92.60;;;;;;4115135;28;20085;-51
2023/06/29 01:16:13;;;;;;;58.25;40.70;;;22.70;92.60;;;;;;4115101;28;20041;-54
2023/06/29 01:18:17;;;;;;;53.88;39.67;;;22.70;92.70;;;;;;4114941;28;20046;-53
2023/06/29 01:20:19;;;;;;;53.60;36.90;;;22.70;92.70;;;;;;4115044;28;20110;-53
2023/06/29 01:22:27;;;;;;;54.90;36.53;;;22.70;92.70;;;;;;4113887;28;20081;-54
2023/06/29 01:24:37;;;;;;;48.60;34.53;;;22.70;92.70;;;;;;4114926;28;20043;-53
2023/06/29 01:26:39;;;;;;;55.60;35.58;;;22.70;92.70;;;;;;4114854;28;20050;-55
2023/06/29 01:28:41;;;;;;;51.78;35.20;;;22.70;92.90;;;;;;4114552;28;20063;-52
2023/06/29 01:30:49;;;;;;;54.17;35.75;;;22.60;92.90;;;;;;4114609;28;20052;-54
2023/06/29 01:32:52;;;;;;;53.58;37.00;;;22.70;93.00;;;;;;4113758;28;20050;-55
2023/06/29 01:34:54;;;;;;;48.50;33.05;;;22.60;93.00;;;;;;4115040;28;20134;-54
2023/06/29 01:37:02;;;;;;;47.75;33.92;;;22.70;93.00;;;;;;4116961;28;20046;-58
2023/06/29 01:39:07;;;;;;;47.85;32.28;;;22.70;93.00;;;;;;4130694;28;20177;-59
2023/06/29 01:41:15;;;;;;;47.63;32.65;;;22.60;93.10;;;;;;4133355;28;20043;-55
2023/06/29 01:43:18;;;;;;;46.70;34.70;;;22.60;93.10;;;;;;4132504;28;20089;-56
2023/06/29 01:45:27;;;;;;;49.72;33.80;;;22.70;93.20;;;;;;4117233;28;20133;-54
2023/06/29 01:47:30;;;;;;;50.08;34.65;;;22.60;93.20;;;;;;4133776;28;20050;-55
2023/06/29 01:49:33;;;;;;;47.38;34.20;;;22.60;93.00;;;;;;4122292;28;20054;-55
2023/06/29 01:51:36;;;;;;;50.50;33.58;;;22.60;93.10;;;;;;4116735;28;20118;-55
2023/06/29 01:53:38;;;;;;;57.05;37.55;;;22.60;93.00;;;;;;4117329;28;20114;-55
2023/06/29 01:55:40;;;;;;;50.53;37.38;;;22.70;93.00;;;;;;4117582;28;20050;-55
2023/06/29 01:57:44;;;;;;;53.38;37.42;;;22.70;92.90;;;;;;4117148;28;20416;-55
2023/06/29 01:59:46;;;;;;;52.47;37.47;;;22.70;93.00;;;;;;4117754;28;20047;-55
2023/06/29 02:01:48;;;;;;;54.65;39.22;;;22.70;92.90;;;;;;4116635;28;20061;-55
2023/06/29 02:03:50;;;;;;;56.30;38.85;;;22.70;93.10;;;;;;4117598;28;20088;-56
2023/06/29 02:05:53;;;;;;;54.40;36.25;;;22.70;93.10;;;;;;4117561;28;20047;-58
2023/06/29 02:07:55;;;;;;;54.78;36.72;;;22.70;93.10;;;;;;4117319;28;20051;-57
2023/06/29 02:09:57;;;;;;;50.97;34.50;;;22.60;93.10;;;;;;4117303;28;20126;-58
2023/06/29 02:11:59;;;;;;;55.00;36.15;;;22.60;93.10;;;;;;4116154;28;20187;-58
2023/06/29 02:14:03;;;;;;;47.45;32.42;;;22.50;93.10;;;;;;4117330;28;20137;-57
2023/06/29 02:16:05;;;;;;;50.22;33.85;;;22.50;93.20;;;;;;4117320;28;20058;-57
2023/06/29 02:18:07;;;;;;;48.35;33.65;;;22.50;93.30;;;;;;4117327;28;20105;-57
2023/06/29 02:20:10;;;;;;;52.75;35.67;;;22.40;93.50;;;;;;4117317;28;20058;-57
2023/06/29 02:22:12;;;;;;;48.70;33.35;;;22.50;93.40;;;;;;4116540;28;20061;-57
2023/06/29 02:24:14;;;;;;;45.05;32.47;;;22.50;93.50;;;;;;4117156;28;20366;-57
2023/06/29 02:26:16;;;;;;;45.22;32.67;;;22.50;93.40;;;;;;4116915;28;20081;-57
2023/06/29 02:28:18;;;;;;;45.83;34.42;;;22.50;93.40;;;;;;4116962;28;20053;-55
2023/06/29 02:30:22;;;;;;;48.63;34.70;;;22.50;93.50;;;;;;4117227;28;20074;-54
2023/06/29 02:32:24;;;;;;;50.15;32.30;;;22.50;93.50;;;;;;4115923;28;20054;-53
2023/06/29 02:34:29;;;;;;;43.30;32.10;;;22.50;93.60;;;;;;4117015;28;20053;-53
2023/06/29 02:36:32;;;;;;;44.67;31.80;;;22.40;93.60;;;;;;4115591;28;20446;-53
2023/06/29 02:38:34;;;;;;;47.10;34.30;;;22.40;93.50;;;;;;4133257;28;20142;-53
2023/06/29 02:40:36;;;;;;;45.20;33.20;;;22.40;93.50;;;;;;4132645;28;20050;-55
2023/06/29 02:42:38;;;;;;;51.80;35.45;;;22.40;93.50;;;;;;4132153;28;20137;-55
2023/06/29 02:44:40;;;;;;;54.05;36.33;;;22.40;93.50;;;;;;4133215;28;20058;-55
2023/06/29 02:46:43;;;;;;;52.85;36.35;;;22.40;93.60;;;;;;4132700;28;20068;-55
2023/06/29 02:48:45;;;;;;;49.33;33.92;;;22.40;93.80;;;;;;4128042;28;20456;-55
2023/06/29 02:50:48;;;;;;;49.83;34.10;;;22.40;93.70;;;;;;4116740;28;20461;-52
2023/06/29 02:52:50;;;;;;;46.25;33.83;;;22.50;93.90;;;;;;4114917;28;20062;-53
2023/06/29 02:54:52;;;;;;;52.10;34.00;;;22.50;93.90;;;;;;4116436;28;20101;-53
2023/06/29 02:56:54;;;;;;;46.53;34.38;;;22.50;93.90;;;;;;4117011;28;20082;-53
2023/06/29 02:58:56;;;;;;;49.17;33.05;;;22.40;94.10;;;;;;4117007;28;20051;-52
2023/06/29 03:00:58;;;;;;;51.08;34.00;;;22.40;94.20;;;;;;4116648;28;20130;-52
2023/06/29 03:03:02;;;;;;;45.80;32.97;;;22.40;94.20;;;;;;4115715;28;20051;-53
2023/06/29 03:05:05;;;;;;;47.47;32.25;;;22.40;94.20;;;;;;4116680;28;20409;-53
2023/06/29 03:07:07;;;;;;;40.50;30.10;;;22.50;94.30;;;;;;4116667;28;20137;-53
2023/06/29 03:09:09;;;;;;;40.42;30.08;;;22.40;94.30;;;;;;4116391;28;20050;-53
2023/06/29 03:11:11;;;;;;;38.30;28.55;;;22.40;94.40;;;;;;4116535;28;20050;-52
2023/06/29 03:13:13;;;;;;;42.70;29.40;;;22.40;94.40;;;;;;4115519;28;20097;-53
2023/06/29 03:15:16;;;;;;;44.85;29.15;;;22.40;94.40;;;;;;4116509;28;20050;-52
2023/06/29 03:17:18;;;;;;;39.40;29.30;;;22.40;94.40;;;;;;4116392;28;20410;-52
2023/06/29 03:19:21;;;;;;;41.00;28.63;;;22.40;94.60;;;;;;4116380;28;20492;-53
2023/06/29 03:21:23;;;;;;;42.10;30.13;;;22.40;94.70;;;;;;4099301;28;20060;-53
2023/06/29 03:23:25;;;;;;;41.28;28.92;;;22.40;94.70;;;;;;4115566;28;20043;-51
2023/06/29 03:25:27;;;;;;;44.25;29.48;;;22.40;94.60;;;;;;4116055;28;20097;-53
2023/06/29 03:27:29;;;;;;;42.20;28.70;;;22.30;94.70;;;;;;4116311;28;20047;-52
2023/06/29 03:29:32;;;;;;;44.13;29.48;;;22.30;94.70;;;;;;4116266;28;20050;-53
2023/06/29 03:31:34;;;;;;;42.35;28.90;;;22.40;94.70;;;;;;4115903;28;20051;-53
2023/06/29 03:33:36;;;;;;;43.45;29.80;;;22.30;94.80;;;;;;4115248;28;20042;-52
2023/06/29 03:35:39;;;;;;;45.63;30.27;;;22.30;94.80;;;;;;4110776;28;20045;-53
2023/06/29 03:37:41;;;;;;;41.50;29.20;;;22.30;94.70;;;;;;4130034;28;20050;-55
2023/06/29 03:39:43;;;;;;;43.30;28.85;;;22.40;94.80;;;;;;4131970;28;20097;-55
2023/06/29 03:41:45;;;;;;;42.35;28.95;;;22.30;94.90;;;;;;4131892;28;20046;-52
2023/06/29 03:43:47;;;;;;;44.65;30.30;;;22.30;94.80;;;;;;4131439;28;20054;-54
2023/06/29 03:45:49;;;;;;;42.03;30.73;;;22.30;94.80;;;;;;4132011;28;20145;-55
2023/06/29 03:47:51;;;;;;;43.38;31.02;;;22.30;95.00;;;;;;4131937;28;20069;-57
2023/06/29 03:49:54;;;;;;;44.38;29.50;;;22.30;95.30;;;;;;4118020;28;20137;-56
2023/06/29 03:51:57;;;;;;;39.78;28.67;;;22.20;95.40;;;;;;4114858;28;20043;-55
2023/06/29 03:53:59;;;;;;;44.17;29.13;;;22.30;95.50;;;;;;4115386;28;20051;-55
2023/06/29 03:56:02;;;;;;;37.33;26.58;;;22.20;95.50;;;;;;4115705;28;20481;-55
2023/06/29 03:58:04;;;;;;;35.67;25.80;;;22.30;95.60;;;;;;4115970;28;20047;-55
2023/06/29 04:00:07;;;;;;;36.08;26.08;;;22.30;95.70;;;;;;4115887;28;20126;-55
2023/06/29 04:02:09;;;;;;;40.70;24.73;;;22.20;95.90;;;;;;4114969;28;20055;-55
2023/06/29 04:04:13;;;;;;;35.13;24.33;;;22.20;96.00;;;;;;4115565;28;20043;-55
2023/06/29 04:06:15;;;;;;;35.28;24.17;;;22.20;96.00;;;;;;4115769;28;20043;-55
2023/06/29 04:08:19;;;;;;;35.13;23.60;;;22.10;96.20;;;;;;4115312;28;20470;-55
2023/06/29 04:10:21;;;;;;;34.80;24.17;;;22.10;96.40;;;;;;4115671;28;20138;-52
2023/06/29 04:12:23;;;;;;;32.75;24.17;;;22.10;96.50;;;;;;4114675;28;20054;-55
2023/06/29 04:14:25;;;;;;;31.67;24.25;;;22.10;96.50;;;;;;4115433;28;20050;-55
2023/06/29 04:16:27;;;;;;;33.08;24.90;;;22.10;96.50;;;;;;4115401;28;20053;-56
2023/06/29 04:18:30;;;;;;;32.67;23.55;;;22.10;96.60;;;;;;4115642;28;20504;-55
2023/06/29 04:20:32;;;;;;;35.42;24.95;;;22.10;96.80;;;;;;4115401;28;20074;-55
2023/06/29 04:22:34;;;;;;;34.63;25.52;;;22.10;97.00;;;;;;4114106;28;20046;-55
2023/06/29 04:24:38;;;;;;;41.00;25.95;;;22.00;97.20;;;;;;4115613;28;20046;-55
2023/06/29 04:26:41;;;;;;;43.05;26.15;;;22.00;97.20;;;;;;4115596;28;20050;-55
2023/06/29 04:28:44;;;;;;;39.00;26.67;;;21.90;97.30;;;;;;4115638;28;20220;-56
2023/06/29 04:30:46;;;;;;;37.40;26.80;;;21.90;97.50;;;;;;4115314;28;20046;-55
2023/06/29 04:32:48;;;;;;;41.47;27.42;;;21.80;97.60;;;;;;4114400;28;20457;-56
2023/06/29 04:34:51;;;;;;;37.30;26.17;;;21.90;97.50;;;;;;4115410;28;20050;-56
2023/06/29 04:36:56;;;;;;;35.92;25.75;;;21.90;97.60;;;;;;4122303;28;20050;-56
2023/06/29 04:38:58;;;;;;;40.30;26.45;;;21.80;97.80;;;;;;4131273;28;20046;-55
2023/06/29 04:41:05;;;;;;;36.83;26.02;;;21.80;97.80;;;;;;4131347;28;20100;-56
2023/06/29 04:43:07;;;;;;;39.35;25.85;;;21.90;97.80;;;;;;4130249;28;20493;-56
2023/06/29 04:45:12;;;;;;;42.33;25.90;;;21.80;97.80;;;;;;4131319;28;20054;-56
2023/06/29 04:47:14;;;;;;;38.50;25.30;;;21.80;97.80;;;;;;4131424;28;20046;-55
2023/06/29 04:49:16;;;;;;;45.33;27.73;;;21.80;97.90;;;;;;4122154;28;20053;-55
2023/06/29 04:51:21;;;;;;;37.30;26.08;;;21.70;98.00;;;;;;4097707;29;20564;-55
2023/06/29 04:53:23;;;;;;;39.38;25.05;;;21.60;98.20;;;;;;4114203;28;20573;-56
2023/06/29 04:55:25;;;;;;;43.03;26.70;;;21.60;98.30;;;;;;4114982;28;20097;-56
2023/06/29 04:57:29;;;;;;;40.33;26.33;;;21.60;98.30;;;;;;4115292;28;20400;-55
2023/06/29 04:59:31;;;;;;;39.60;26.52;;;21.60;98.40;;;;;;4115105;28;20051;-55
2023/06/29 05:01:33;;;;;;;39.78;25.95;;;21.50;98.60;;;;;;4113949;28;20078;-55
2023/06/29 05:03:35;;;;;;;38.70;26.95;;;21.50;98.70;;;;;;4113855;28;20047;-55
2023/06/29 05:05:37;;;;;;;40.20;26.58;;;21.50;98.60;;;;;;4114937;28;20516;-55
2023/06/29 05:07:41;;;;;;;34.15;24.38;;;21.60;98.60;;;;;;4115283;28;20050;-54
2023/06/29 05:09:43;;;;;;;36.40;25.60;;;21.60;98.60;;;;;;4115330;28;20109;-54
2023/06/29 05:11:45;;;;;;;42.25;26.38;;;21.70;98.60;;;;;;4115170;28;20047;-55
2023/06/29 05:13:48;;;;;;;48.08;26.92;;;21.60;98.70;;;;;;4114061;28;20126;-54
2023/06/29 05:15:50;;;;;;;34.22;24.58;;;21.60;98.70;;;;;;4117342;28;20446;-56
2023/06/29 05:17:52;;;;;;;43.08;27.02;;;21.60;98.70;;;;;;4118214;28;20124;-55
2023/06/29 05:19:55;;;;;;;41.15;25.00;;;21.50;98.80;;;;;;4118110;28;20138;-55
2023/06/29 05:21:57;;;;;;;40.20;26.40;;;21.60;98.70;;;;;;4118083;28;20097;-56
2023/06/29 05:23:59;;;;;;;38.42;26.23;;;21.60;98.80;;;;;;4117084;28;20055;-56
2023/06/29 05:26:01;;;;;;;35.67;25.10;;;21.60;98.90;;;;;;4118018;28;20074;-56
2023/06/29 05:28:04;;;;;;;39.08;26.60;;;21.60;98.90;;;;;;4117877;28;20050;-56
2023/06/29 05:30:09;;;;;;;39.72;27.00;;;21.60;98.90;;;;;;4118041;28;20511;-56
2023/06/29 05:32:12;;;;;;;42.80;26.50;;;21.60;98.90;;;;;;4117239;28;20051;-56
2023/06/29 05:34:14;;;;;;;58.35;27.17;;;21.60;99.00;;;;;;4117417;28;20054;-56
2023/06/29 05:36:16;;;;;;;42.90;27.63;;;21.60;99.00;;;;;;4114676;28;20057;-56
2023/06/29 05:38:18;;;;;;;55.22;27.73;;;21.60;99.10;;;;;;4133847;28;20050;-56
2023/06/29 05:40:20;;;;;;;41.83;27.73;;;21.70;99.10;;;;;;4134166;28;20046;-55
2023/06/29 05:42:23;;;;;;;47.78;27.52;;;21.70;99.30;;;;;;4132921;28;20046;-56
2023/06/29 05:44:25;;;;;;;38.00;26.52;;;21.60;99.10;;;;;;4133906;28;20097;-55
2023/06/29 05:46:28;;;;;;;41.92;27.60;;;21.50;99.40;;;;;;4133524;28;20055;-55
2023/06/29 05:48:31;;;;;;;38.75;25.77;;;21.50;99.30;;;;;;4131125;28;20039;-60
2023/06/29 05:50:33;;;;;;;39.83;26.70;;;21.50;99.50;;;;;;4117310;28;20051;-56
2023/06/29 05:52:35;;;;;;;40.80;27.77;;;21.60;99.40;;;;;;4116686;28;20090;-56
2023/06/29 05:54:38;;;;;;;42.10;27.08;;;21.50;99.50;;;;;;4117477;28;20196;-56
2023/06/29 05:56:40;;;;;;;39.67;26.63;;;21.60;99.50;;;;;;4117805;28;20049;-55
2023/06/29 05:58:42;;;;;;;47.95;28.13;;;21.70;99.30;;;;;;4117768;28;20058;-55
2023/06/29 06:00:45;;;;;;;43.30;25.98;;;21.70;99.40;;;;;;4117636;28;20054;-54
2023/06/29 06:02:48;;;;;;;43.50;28.13;;;21.70;99.20;;;;;;4116818;28;20051;-56
2023/06/29 06:04:51;;;;;;;39.60;26.77;;;21.70;99.30;;;;;;4117303;28;20070;-55
2023/06/29 06:06:53;;;;;;;46.17;27.95;;;21.80;99.10;;;;;;4117334;28;20129;-55
2023/06/29 06:08:55;;;;;;;43.08;26.60;;;21.70;99.20;;;;;;4117358;28;20051;-54
2023/06/29 06:10:57;;;;;;;51.00;28.20;;;21.80;99.20;;;;;;4117294;28;20089;-54
2023/06/29 06:12:59;;;;;;;45.33;27.80;;;21.80;99.20;;;;;;4116215;28;20053;-56
2023/06/29 06:15:02;;;;;;;43.78;27.45;;;21.80;99.10;;;;;;4117291;28;20057;-56
2023/06/29 06:17:04;;;;;;;46.60;27.70;;;21.80;99.10;;;;;;4117398;28;20055;-55
2023/06/29 06:19:07;;;;;;;43.50;28.40;;;21.80;99.10;;;;;;4116829;28;20078;-55
2023/06/29 06:21:09;;;;;;;43.75;27.70;;;21.80;99.10;;;;;;4117383;28;20131;-56
2023/06/29 06:23:11;;;;;;;47.10;27.48;;;21.90;99.10;;;;;;4116778;28;20055;-56
2023/06/29 06:25:17;;;;;;;43.47;27.88;;;21.80;99.30;;;;;;4117407;28;20074;-60
2023/06/29 06:27:19;;;;;;;49.30;27.90;;;21.90;99.10;;;;;;4116183;28;20047;-56
2023/06/29 06:29:21;;;;;;;38.80;27.35;;;22.00;99.10;;;;;;4117435;28;20047;-56
2023/06/29 06:31:25;;;;;;;41.80;25.77;;;22.00;98.90;;;;;;4117002;28;20062;-56
2023/06/29 06:33:35;;;;;;;42.33;25.42;;;22.00;98.80;;;;;;4115960;28;20058;-56
2023/06/29 06:35:39;;;;;;;46.78;26.88;;;22.10;98.80;;;;;;4111894;28;20054;-56
2023/06/29 06:37:41;;;;;;;43.00;26.77;;;22.10;98.70;;;;;;4130784;28;20050;-54
2023/06/29 06:39:43;;;;;;;49.47;26.38;;;22.10;98.60;;;;;;4133383;28;20077;-56
2023/06/29 06:41:45;;;;;;;38.47;24.40;;;22.20;98.50;;;;;;4133307;28;20069;-56
2023/06/29 06:43:47;;;;;;;41.40;27.13;;;22.20;98.40;;;;;;4131961;28;20070;-56
2023/06/29 06:45:52;;;;;;;36.30;24.77;;;22.20;98.20;;;;;;4132910;28;20085;-56
2023/06/29 06:47:54;;;;;;;;;;;22.20;98.20;;;;;;4133274;28;20544;-55
2023/06/29 06:49:56;;;;;;;54.72;27.27;;;22.20;98.10;;;;;;4118368;28;19922;-56
2023/06/29 06:52:02;;;;;;;40.90;27.30;;;22.20;98.30;;;;;;4116909;28;20057;-55
2023/06/29 06:54:04;;;;;;;33.60;23.92;;;22.20;98.20;;;;;;4115755;28;20058;-56
2023/06/29 06:56:06;;;;;;;43.58;26.30;;;22.30;98.20;;;;;;4115060;28;20511;-55
2023/06/29 06:58:08;;;;;;;46.28;27.20;;;22.30;98.10;;;;;;4115871;28;20047;-55
2023/06/29 07:00:13;;;;;;;38.65;26.33;;;22.30;98.10;;;;;;4116380;28;20461;-56
2023/06/29 07:02:16;;;;;;;41.90;25.42;;;22.30;98.00;;;;;;4115877;28;20061;-55
2023/06/29 07:04:18;;;;;;;40.78;27.00;;;22.30;98.00;;;;;;4106972;28;20417;-58
2023/06/29 07:06:20;;;;;;;38.00;25.25;;;22.20;98.00;;;;;;4100478;29;20054;-56
2023/06/29 07:08:23;;;;;;;39.78;27.40;;;22.20;98.10;;;;;;4115366;28;20051;-56
2023/06/29 07:10:26;;;;;;;43.17;26.65;;;22.20;98.10;;;;;;4116114;28;20489;-56
2023/06/29 07:12:28;;;;;;;39.70;26.23;;;22.20;98.00;;;;;;4115408;28;20042;-58
2023/06/29 07:14:31;;;;;;;38.58;24.98;;;22.30;98.00;;;;;;4115560;28;20046;-58
2023/06/29 07:16:33;;;;;;;37.17;26.05;;;22.20;97.90;;;;;;4116000;28;20073;-58
2023/06/29 07:18:36;;;;;;;44.17;27.95;;;22.30;98.00;;;;;;4115637;28;20078;-58
2023/06/29 07:20:38;;;;;;;39.30;27.30;;;22.30;98.00;;;;;;4116103;28;20081;-55
2023/06/29 07:22:43;;;;;;;37.25;25.20;;;22.30;97.80;;;;;;4114744;28;20464;-55
2023/06/29 07:24:49;;;;;;;45.72;28.05;;;22.30;97.80;;;;;;4115272;28;20074;-55
2023/06/29 07:26:51;;;;;;;38.42;26.33;;;22.40;97.90;;;;;;4115989;28;20047;-56
2023/06/29 07:28:53;;;;;;;37.88;26.48;;;22.40;97.80;;;;;;4113923;28;20055;-55
2023/06/29 07:30:55;;;;;;;43.30;26.70;;;22.40;97.60;;;;;;4113413;28;20455;-55
2023/06/29 07:32:58;;;;;;;41.85;26.15;;;22.40;97.60;;;;;;4114405;28;20070;-56
2023/06/29 07:35:00;;;;;;;41.80;27.20;;;22.40;97.80;;;;;;4115467;28;20091;-56
2023/06/29 07:37:03;;;;;;;42.60;28.05;;;22.40;97.80;;;;;;4119130;28;20097;-58
2023/06/29 07:39:05;;;;;;;41.42;26.10;;;22.50;97.60;;;;;;4118299;28;20047;-55
2023/06/29 07:41:09;;;;;;;39.05;25.75;;;22.60;97.50;;;;;;4113605;28;20057;-56
2023/06/29 07:43:11;;;;;;;57.90;28.73;;;22.60;97.40;;;;;;4102863;28;20047;-55
2023/06/29 07:45:13;;;;;;;49.90;27.67;;;22.60;97.40;;;;;;4114738;28;20476;-55
2023/06/29 07:47:15;;;;;;;46.15;26.90;;;22.70;97.30;;;;;;4115702;28;20511;-57
2023/06/29 07:49:18;;;;;;;68.40;30.40;;;22.80;97.20;;;;;;4115212;28;20046;-55
2023/06/29 07:51:21;;;;;;;41.03;24.45;;;22.80;97.00;;;;;;4115415;28;20089;-55
2023/06/29 07:53:24;;;;;;;39.88;25.40;;;22.70;97.00;;;;;;4113961;28;20113;-55
2023/06/29 07:55:26;;;;;;;45.42;29.25;;;22.60;97.20;;;;;;4114300;28;20473;-55
2023/06/29 07:57:29;;;;;;;45.47;26.50;;;22.80;97.20;;;;;;4110216;28;20130;-55
2023/06/29 07:59:34;;;;;;;48.03;28.20;;;22.80;97.10;;;;;;4114462;28;20519;-55
2023/06/29 08:01:37;;;;;;;43.95;27.75;;;22.90;97.00;;;;;;4103523;28;20051;-53
2023/06/29 08:03:39;;;;;;;42.55;26.42;;;23.00;96.80;;;;;;4105690;28;20573;-53
2023/06/29 08:06:02;;;;;;;57.72;27.98;;;23.00;96.70;;;;;;4104444;28;20123;-54
2023/06/29 08:08:07;;;;;;;46.42;28.05;;;23.10;96.50;;;;;;4115158;28;20049;-53
2023/06/29 08:10:10;;;;;;;55.05;28.85;;;23.10;96.40;;;;;;4115066;28;20051;-53
2023/06/29 08:12:12;;;;;;;49.58;27.95;;;23.20;96.30;;;;;;4098407;29;20445;-57
2023/06/29 08:14:16;;;;;;;48.33;27.33;;;23.20;96.30;;;;;;4102600;28;20189;-53
2023/06/29 08:16:18;;;;;;;48.78;27.10;;;23.20;96.10;;;;;;4115774;28;20042;-55
2023/06/29 08:18:21;;;;;;;45.67;27.42;;;23.20;96.20;;;;;;4115537;28;20129;-56
2023/06/29 08:20:23;;;;;;;56.78;28.42;;;23.40;95.90;;;;;;4113970;28;20051;-56
2023/06/29 08:22:26;;;;;;;45.63;27.17;;;23.50;95.80;;;;;;4115186;28;20053;-54
2023/06/29 08:24:28;;;;;;;58.17;27.25;;;23.60;95.60;;;;;;4113695;28;20126;-54
2023/06/29 08:26:31;;;;;;;53.38;28.05;;;23.80;95.50;;;;;;4115246;28;20055;-53
2023/06/29 08:28:33;;;;;;;53.97;29.02;;;24.10;95.30;;;;;;4114952;28;20058;-56
2023/06/29 08:30:37;;;;;;;42.60;26.85;;;24.20;95.10;;;;;;4112464;28;20047;-56
2023/06/29 08:32:39;;;;;;;38.03;26.77;;;24.40;94.70;;;;;;4112285;28;20544;-56
2023/06/29 08:34:41;;;;;;;36.38;24.90;;;24.40;94.50;;;;;;4113447;28;20058;-56
2023/06/29 08:36:43;;;;;;;58.33;29.15;;;24.70;94.30;;;;;;4114089;28;20070;-56
2023/06/29 08:38:48;;;;;;;69.00;28.42;;;24.80;94.20;;;;;;4114586;28;20054;-56
2023/06/29 08:40:51;;;;;;;43.13;26.92;;;24.90;93.90;;;;;;4114522;28;20420;-55
2023/06/29 08:42:53;;;;;;;46.35;26.90;;;24.70;93.50;;;;;;4102694;28;20050;-56
2023/06/29 08:44:56;;;;;;;47.70;25.88;;;24.70;93.50;;;;;;4114461;28;20536;-56
2023/06/29 08:47:01;;;;;;;38.70;25.70;;;24.60;93.30;;;;;;4114759;28;20047;-56
2023/06/29 08:49:06;;;;;;;56.35;26.65;;;24.50;93.40;;;;;;4114098;28;20047;-56
2023/06/29 08:51:10;;;;;;;40.03;27.17;;;24.40;93.60;;;;;;4113777;28;20405;-56
2023/06/29 08:53:13;;;;;;;39.25;25.13;;;24.40;94.30;;;;;;4113774;28;20080;-56
2023/06/29 08:55:16;;;;;;;61.50;27.48;;;24.50;94.20;;;;;;4113698;28;20047;-56
2023/06/29 08:57:18;;;;;;;41.97;27.63;;;24.60;93.80;;;;;;4114306;28;20118;-55
2023/06/29 08:59:21;;;;;;;33.67;25.80;;;24.60;93.70;;;;;;4114743;28;20043;-56
2023/06/29 09:01:24;;;;;;;42.35;27.98;;;24.70;93.30;;;;;;4114405;28;20050;-56
2023/06/29 09:03:31;;;;;;;38.47;25.92;;;24.90;93.40;;;;;;4107083;28;20047;-56
2023/06/29 09:05:36;;;;;;;45.97;30.38;;;24.90;93.10;;;;;;4104654;28;20098;-56
2023/06/29 09:07:40;;;;;;;44.47;28.15;;;25.10;93.50;;;;;;4111797;28;20042;-56
2023/06/29 09:09:43;;;;;;;37.20;28.13;;;25.30;93.00;;;;;;4114279;28;20056;-56
2023/06/29 09:11:45;;;;;;;39.50;26.77;;;25.40;92.80;;;;;;4112265;28;20467;-55
2023/06/29 09:13:49;;;;;;;36.85;25.52;;;25.20;92.70;;;;;;4112962;28;20042;-57
2023/06/29 09:15:53;;;;;;;39.30;25.15;;;25.30;92.60;;;;;;4114429;28;20093;-56
2023/06/29 09:17:56;;;;;;;42.67;27.20;;;25.40;92.50;;;;;;4114209;28;20105;-56
2023/06/29 09:20:13;;;;;;;38.30;27.02;;;25.50;92.70;;;;;;4114334;28;20101;-54
2023/06/29 09:22:15;;;;;;;46.25;27.38;;;25.60;92.30;;;;;;4114110;28;20051;-55
2023/06/29 09:24:18;;;;;;;58.97;29.75;;;25.70;92.20;;;;;;4113066;28;20086;-55
2023/06/29 09:26:23;;;;;;;56.17;30.98;;;25.70;91.90;;;;;;4113584;28;20386;-55
2023/06/29 09:28:26;;;;;;;76.50;29.27;;;25.70;91.90;;;;;;4114213;28;20054;-54
2023/06/29 09:30:35;;;;;;;41.15;26.05;;;25.80;91.90;;;;;;4114115;28;20054;-57
2023/06/29 09:32:38;;;;;;;38.33;25.98;;;25.80;91.70;;;;;;4113959;28;20047;-57
2023/06/29 09:34:45;;;;;;;47.47;24.55;;;25.70;91.70;;;;;;4113331;28;20141;-57
2023/06/29 09:36:49;;;;;;;36.83;24.20;;;25.70;91.70;;;;;;4113838;28;20118;-55
2023/06/29 09:38:52;;;;;;;40.20;24.13;;;25.60;91.70;;;;;;4113887;28;20421;-55
2023/06/29 09:40:55;;;;;;;40.42;25.33;;;25.60;91.80;;;;;;4113732;28;20074;-55
2023/06/29 09:42:57;;;;;;;37.38;22.60;;;25.70;91.40;;;;;;4113853;28;20051;-55
2023/06/29 09:45:01;;;;;;;36.88;24.75;;;25.70;91.10;;;;;;4113161;28;20051;-55
2023/06/29 09:47:05;;;;;;;32.60;22.95;;;25.80;91.20;;;;;;4114063;28;20076;-54
2023/06/29 09:49:10;;;;;;;38.47;23.55;;;25.70;90.90;;;;;;4114037;28;20459;-54
2023/06/29 09:51:18;;;;;;;34.33;22.90;;;25.70;90.90;;;;;;4112265;28;20563;-51
2023/06/29 09:53:30;;;;;;;38.75;23.17;;;25.80;91.10;;;;;;4110041;28;20110;-54
2023/06/29 09:55:33;;;;;;;37.75;23.30;;;25.90;91.10;;;;;;4110611;28;20149;-54
2023/06/29 09:57:35;;;;;;;34.75;22.92;;;26.00;91.00;;;;;;4111990;28;20038;-54
2023/06/29 09:59:41;;;;;;;35.53;22.55;;;26.00;90.70;;;;;;4112441;28;20042;-52
2023/06/29 10:01:45;;;;;;;30.95;20.80;;;26.00;90.60;;;;;;4115015;28;20126;-52
2023/06/29 10:03:48;;;;;;;36.33;22.65;;;25.90;90.80;;;;;;4108121;28;20138;-51
2023/06/29 10:05:54;;;;;;;36.70;25.05;;;26.10;90.20;;;;;;4112324;28;20074;-52
2023/06/29 10:07:57;;;;;;;38.38;23.90;;;26.10;90.30;;;;;;4116021;28;20054;-52
2023/06/29 10:10:02;;;;;;;38.15;23.15;;;25.70;89.90;;;;;;4115536;28;20046;-53
2023/06/29 10:12:07;;;;;;;37.33;25.15;;;25.70;90.60;;;;;;4116355;28;20138;-56
2023/06/29 10:14:11;;;;;;;34.35;24.52;;;25.70;90.80;;;;;;4112691;28;20050;-55
2023/06/29 10:16:17;;;;;;;42.83;25.42;;;25.70;91.10;;;;;;4115849;28;20125;-54
2023/06/29 10:18:26;;;;;;;39.60;25.17;;;26.00;91.10;;;;;;4115918;28;20177;-54
2023/06/29 10:20:31;;;;;;;33.75;23.02;;;26.10;90.90;;;;;;4105176;28;20437;-57
2023/06/29 10:22:36;;;;;;;32.70;23.48;;;26.10;91.20;;;;;;4114870;28;20134;-57
2023/06/29 10:24:44;;;;;;;40.15;24.27;;;26.00;91.10;;;;;;4114199;28;20051;-57